sensor_id;sensor_type;location;lat;lon;timestamp;temperature;humidity
67131;HTU21D;54051;53.464;49.532;2023-06-24T00:01:03;11.38;77.76
67131;HTU21D;54051;53.464;49.532;2023-06-24T00:03:30;11.38;77.62
67131;HTU21D;54051;53.464;49.532;2023-06-24T00:05:57;11.37;77.49
67131;HTU21D;54051;53.464;49.532;2023-06-24T00:08:29;11.32;77.66
67131;HTU21D;54051;53.464;49.532;2023-06-24T00:11:03;11.29;78.53
67131;HTU21D;54051;53.464;49.532;2023-06-24T00:13:29;11.26;79.02
67131;HTU21D;54051;53.464;49.532;2023-06-24T00:15:56;11.22;80.30
67131;HTU21D;54051;53.464;49.532;2023-06-24T00:18:22;11.16;80.75
67131;HTU21D;54051;53.464;49.532;2023-06-24T00:20:50;11.25;80.93
67131;HTU21D;54051;53.464;49.532;2023-06-24T00:23:22;11.31;80.82
67131;HTU21D;54051;53.464;49.532;2023-06-24T00:25:51;11.37;79.23
67131;HTU21D;54051;53.464;49.532;2023-06-24T00:28:17;11.38;79.25
67131;HTU21D;54051;53.464;49.532;2023-06-24T00:30:43;11.41;79.04
67131;HTU21D;54051;53.464;49.532;2023-06-24T00:33:09;11.40;79.09
67131;HTU21D;54051;53.464;49.532;2023-06-24T00:35:37;11.33;79.48
67131;HTU21D;54051;53.464;49.532;2023-06-24T00:38:04;11.27;79.99
67131;HTU21D;54051;53.464;49.532;2023-06-24T00:40:30;11.23;80.10
67131;HTU21D;54051;53.464;49.532;2023-06-24T00:42:56;11.25;79.99
67131;HTU21D;54051;53.464;49.532;2023-06-24T00:45:23;11.26;79.84
67131;HTU21D;54051;53.464;49.532;2023-06-24T00:47:49;11.20;79.95
67131;HTU21D;54051;53.464;49.532;2023-06-24T00:50:17;11.18;79.96
67131;HTU21D;54051;53.464;49.532;2023-06-24T00:52:43;11.15;80.28
67131;HTU21D;54051;53.464;49.532;2023-06-24T00:55:11;11.22;80.14
67131;HTU21D;54051;53.464;49.532;2023-06-24T00:57:42;11.30;79.69
67131;HTU21D;54051;53.464;49.532;2023-06-24T01:00:09;11.32;79.59
67131;HTU21D;54051;53.464;49.532;2023-06-24T01:02:39;11.32;79.76
67131;HTU21D;54051;53.464;49.532;2023-06-24T01:05:09;11.33;79.75
67131;HTU21D;54051;53.464;49.532;2023-06-24T01:07:37;11.25;80.33
67131;HTU21D;54051;53.464;49.532;2023-06-24T01:10:05;11.22;80.64
67131;HTU21D;54051;53.464;49.532;2023-06-24T01:12:37;11.20;80.82
67131;HTU21D;54051;53.464;49.532;2023-06-24T01:15:06;11.24;80.64
67131;HTU21D;54051;53.464;49.532;2023-06-24T01:17:43;11.34;80.25
67131;HTU21D;54051;53.464;49.532;2023-06-24T01:36:17;11.89;78.33
67131;HTU21D;54051;53.464;49.532;2023-06-24T01:38:52;12.06;77.64
67131;HTU21D;54051;53.464;49.532;2023-06-24T01:41:24;12.29;77.06
67131;HTU21D;54051;53.464;49.532;2023-06-24T01:43:55;12.63;75.70
67131;HTU21D;54051;53.464;49.532;2023-06-24T01:46:22;13.24;73.03
67131;HTU21D;54051;53.464;49.532;2023-06-24T01:48:53;14.13;69.17
67131;HTU21D;54051;53.464;49.532;2023-06-24T01:51:22;15.37;64.20
67131;HTU21D;54051;53.464;49.532;2023-06-24T01:53:53;15.67;62.92
67131;HTU21D;54051;53.464;49.532;2023-06-24T01:56:22;17.11;58.29
67131;HTU21D;54051;53.464;49.532;2023-06-24T01:58:52;18.73;52.49
67131;HTU21D;54051;53.464;49.532;2023-06-24T02:01:19;19.84;49.17
67131;HTU21D;54051;53.464;49.532;2023-06-24T02:03:47;20.85;46.51
67131;HTU21D;54051;53.464;49.532;2023-06-24T02:06:15;22.04;43.10
67131;HTU21D;54051;53.464;49.532;2023-06-24T02:08:43;23.02;40.74
67131;HTU21D;54051;53.464;49.532;2023-06-24T02:11:13;23.73;39.11
67131;HTU21D;54051;53.464;49.532;2023-06-24T02:13:42;24.20;37.85
67131;HTU21D;54051;53.464;49.532;2023-06-24T02:16:10;24.42;36.81
67131;HTU21D;54051;53.464;49.532;2023-06-24T02:18:38;24.78;36.47
67131;HTU21D;54051;53.464;49.532;2023-06-24T02:21:08;24.91;36.18
67131;HTU21D;54051;53.464;49.532;2023-06-24T02:23:37;25.23;35.32
67131;HTU21D;54051;53.464;49.532;2023-06-24T02:26:06;25.47;35.21
67131;HTU21D;54051;53.464;49.532;2023-06-24T02:28:33;26.28;33.38
67131;HTU21D;54051;53.464;49.532;2023-06-24T02:31:00;27.09;31.65
67131;HTU21D;54051;53.464;49.532;2023-06-24T02:33:30;27.84;29.90
67131;HTU21D;54051;53.464;49.532;2023-06-24T02:35:56;27.24;30.92
67131;HTU21D;54051;53.464;49.532;2023-06-24T02:38:22;27.84;29.60
67131;HTU21D;54051;53.464;49.532;2023-06-24T02:40:49;28.44;28.38
67131;HTU21D;54051;53.464;49.532;2023-06-24T02:43:16;27.63;30.06
67131;HTU21D;54051;53.464;49.532;2023-06-24T02:45:43;27.68;29.88
67131;HTU21D;54051;53.464;49.532;2023-06-24T02:48:13;28.11;29.39
67131;HTU21D;54051;53.464;49.532;2023-06-24T02:50:40;28.38;28.64
67131;HTU21D;54051;53.464;49.532;2023-06-24T02:53:07;27.74;29.70
67131;HTU21D;54051;53.464;49.532;2023-06-24T02:55:34;26.61;31.87
67131;HTU21D;54051;53.464;49.532;2023-06-24T02:58:02;25.66;33.89
67131;HTU21D;54051;53.464;49.532;2023-06-24T03:00:29;25.52;34.82
67131;HTU21D;54051;53.464;49.532;2023-06-24T03:03:01;26.19;33.08
67131;HTU21D;54051;53.464;49.532;2023-06-24T03:05:29;27.17;31.93
67131;HTU21D;54051;53.464;49.532;2023-06-24T03:07:59;27.96;29.60
67131;HTU21D;54051;53.464;49.532;2023-06-24T03:10:26;29.06;27.57
67131;HTU21D;54051;53.464;49.532;2023-06-24T03:12:52;29.56;26.74
67131;HTU21D;54051;53.464;49.532;2023-06-24T03:15:19;29.97;26.30
67131;HTU21D;54051;53.464;49.532;2023-06-24T03:17:51;29.50;27.02
67131;HTU21D;54051;53.464;49.532;2023-06-24T03:20:18;28.77;27.90
67131;HTU21D;54051;53.464;49.532;2023-06-24T03:22:46;29.50;27.14
67131;HTU21D;54051;53.464;49.532;2023-06-24T03:25:13;29.43;26.81
67131;HTU21D;54051;53.464;49.532;2023-06-24T03:27:39;28.38;28.40
67131;HTU21D;54051;53.464;49.532;2023-06-24T03:30:05;28.09;29.29
67131;HTU21D;54051;53.464;49.532;2023-06-24T03:32:32;28.00;29.95
67131;HTU21D;54051;53.464;49.532;2023-06-24T03:35:00;28.88;28.37
67131;HTU21D;54051;53.464;49.532;2023-06-24T03:37:27;30.16;26.20
67131;HTU21D;54051;53.464;49.532;2023-06-24T03:39:53;30.78;26.02
67131;HTU21D;54051;53.464;49.532;2023-06-24T03:42:19;30.72;25.87
67131;HTU21D;54051;53.464;49.532;2023-06-24T03:44:45;30.45;26.33
67131;HTU21D;54051;53.464;49.532;2023-06-24T03:47:11;30.92;25.97
67131;HTU21D;54051;53.464;49.532;2023-06-24T03:49:37;32.14;23.26
67131;HTU21D;54051;53.464;49.532;2023-06-24T03:52:08;33.03;21.81
67131;HTU21D;54051;53.464;49.532;2023-06-24T03:54:34;33.43;21.16
67131;HTU21D;54051;53.464;49.532;2023-06-24T03:57:01;33.86;19.90
67131;HTU21D;54051;53.464;49.532;2023-06-24T03:59:27;34.02;19.71
67131;HTU21D;54051;53.464;49.532;2023-06-24T04:01:53;32.90;21.34
67131;HTU21D;54051;53.464;49.532;2023-06-24T04:04:20;32.86;20.73
67131;HTU21D;54051;53.464;49.532;2023-06-24T04:06:46;33.79;19.24
67131;HTU21D;54051;53.464;49.532;2023-06-24T04:09:15;34.81;17.93
67131;HTU21D;54051;53.464;49.532;2023-06-24T04:11:41;35.52;16.71
67131;HTU21D;54051;53.464;49.532;2023-06-24T04:14:07;35.59;17.22
67131;HTU21D;54051;53.464;49.532;2023-06-24T04:16:35;32.94;20.08
67131;HTU21D;54051;53.464;49.532;2023-06-24T04:19:01;31.07;22.95
67131;HTU21D;54051;53.464;49.532;2023-06-24T04:21:28;29.66;26.42
67131;HTU21D;54051;53.464;49.532;2023-06-24T04:23:57;31.42;23.12
67131;HTU21D;54051;53.464;49.532;2023-06-24T04:26:23;34.79;18.15
67131;HTU21D;54051;53.464;49.532;2023-06-24T04:28:49;34.23;19.16
67131;HTU21D;54051;53.464;49.532;2023-06-24T04:31:18;34.82;18.57
67131;HTU21D;54051;53.464;49.532;2023-06-24T04:33:54;35.66;17.13
67131;HTU21D;54051;53.464;49.532;2023-06-24T04:36:20;33.71;19.51
67131;HTU21D;54051;53.464;49.532;2023-06-24T04:38:46;32.13;21.34
67131;HTU21D;54051;53.464;49.532;2023-06-24T04:41:15;30.69;23.18
67131;HTU21D;54051;53.464;49.532;2023-06-24T04:43:41;30.24;24.19
67131;HTU21D;54051;53.464;49.532;2023-06-24T04:46:07;30.08;25.37
67131;HTU21D;54051;53.464;49.532;2023-06-24T04:48:34;28.65;27.55
67131;HTU21D;54051;53.464;49.532;2023-06-24T04:51:00;27.67;29.28
67131;HTU21D;54051;53.464;49.532;2023-06-24T04:53:26;27.14;30.17
67131;HTU21D;54051;53.464;49.532;2023-06-24T04:55:52;26.52;31.80
67131;HTU21D;54051;53.464;49.532;2023-06-24T04:58:18;27.86;28.01
67131;HTU21D;54051;53.464;49.532;2023-06-24T05:00:44;28.95;25.94
67131;HTU21D;54051;53.464;49.532;2023-06-24T05:03:10;28.98;25.28
67131;HTU21D;54051;53.464;49.532;2023-06-24T05:05:36;28.75;25.67
67131;HTU21D;54051;53.464;49.532;2023-06-24T05:08:03;28.09;26.09
67131;HTU21D;54051;53.464;49.532;2023-06-24T05:10:29;26.80;28.60
67131;HTU21D;54051;53.464;49.532;2023-06-24T05:12:55;26.06;30.49
67131;HTU21D;54051;53.464;49.532;2023-06-24T05:15:21;26.50;30.42
67131;HTU21D;54051;53.464;49.532;2023-06-24T05:17:47;27.52;28.99
67131;HTU21D;54051;53.464;49.532;2023-06-24T05:20:14;29.04;25.79
67131;HTU21D;54051;53.464;49.532;2023-06-24T05:22:40;30.49;22.99
67131;HTU21D;54051;53.464;49.532;2023-06-24T05:25:06;31.26;20.63
67131;HTU21D;54051;53.464;49.532;2023-06-24T05:27:32;31.76;19.32
67131;HTU21D;54051;53.464;49.532;2023-06-24T05:29:58;31.46;19.47
67131;HTU21D;54051;53.464;49.532;2023-06-24T05:32:25;32.19;19.09
67131;HTU21D;54051;53.464;49.532;2023-06-24T05:34:51;32.41;18.20
67131;HTU21D;54051;53.464;49.532;2023-06-24T05:37:17;31.95;18.25
67131;HTU21D;54051;53.464;49.532;2023-06-24T05:39:43;31.54;19.36
67131;HTU21D;54051;53.464;49.532;2023-06-24T05:42:09;32.60;18.30
67131;HTU21D;54051;53.464;49.532;2023-06-24T05:44:35;33.25;17.68
67131;HTU21D;54051;53.464;49.532;2023-06-24T05:47:04;33.60;18.67
67131;HTU21D;54051;53.464;49.532;2023-06-24T05:49:30;34.31;16.41
67131;HTU21D;54051;53.464;49.532;2023-06-24T05:51:56;33.25;18.01
67131;HTU21D;54051;53.464;49.532;2023-06-24T05:54:23;33.04;17.90
67131;HTU21D;54051;53.464;49.532;2023-06-24T05:56:49;33.66;17.80
67131;HTU21D;54051;53.464;49.532;2023-06-24T05:59:15;33.50;18.39
67131;HTU21D;54051;53.464;49.532;2023-06-24T06:01:41;32.57;18.95
67131;HTU21D;54051;53.464;49.532;2023-06-24T06:04:07;31.66;21.29
67131;HTU21D;54051;53.464;49.532;2023-06-24T06:06:33;29.58;23.70
67131;HTU21D;54051;53.464;49.532;2023-06-24T06:09:00;29.29;24.63
67131;HTU21D;54051;53.464;49.532;2023-06-24T06:11:26;30.57;21.83
67131;HTU21D;54051;53.464;49.532;2023-06-24T06:13:52;33.06;18.25
67131;HTU21D;54051;53.464;49.532;2023-06-24T06:16:18;34.17;17.19
67131;HTU21D;54051;53.464;49.532;2023-06-24T06:18:44;33.97;17.90
67131;HTU21D;54051;53.464;49.532;2023-06-24T06:21:11;35.43;15.68
67131;HTU21D;54051;53.464;49.532;2023-06-24T06:23:37;34.45;15.76
67131;HTU21D;54051;53.464;49.532;2023-06-24T06:26:03;33.32;17.36
67131;HTU21D;54051;53.464;49.532;2023-06-24T06:28:29;32.78;19.51
67131;HTU21D;54051;53.464;49.532;2023-06-24T06:30:55;31.57;19.78
67131;HTU21D;54051;53.464;49.532;2023-06-24T06:33:23;31.16;19.96
67131;HTU21D;54051;53.464;49.532;2023-06-24T06:35:49;31.00;19.49
67131;HTU21D;54051;53.464;49.532;2023-06-24T06:38:15;31.39;17.84
67131;HTU21D;54051;53.464;49.532;2023-06-24T06:40:41;30.19;19.75
67131;HTU21D;54051;53.464;49.532;2023-06-24T06:43:08;28.46;23.75
67131;HTU21D;54051;53.464;49.532;2023-06-24T06:45:34;27.45;24.91
67131;HTU21D;54051;53.464;49.532;2023-06-24T06:48:01;26.72;25.01
67131;HTU21D;54051;53.464;49.532;2023-06-24T06:50:27;26.73;25.07
67131;HTU21D;54051;53.464;49.532;2023-06-24T06:52:54;26.75;25.71
67131;HTU21D;54051;53.464;49.532;2023-06-24T06:55:20;27.08;24.32
67131;HTU21D;54051;53.464;49.532;2023-06-24T06:57:46;27.50;24.04
67131;HTU21D;54051;53.464;49.532;2023-06-24T07:00:12;27.38;24.32
67131;HTU21D;54051;53.464;49.532;2023-06-24T07:02:38;27.38;24.24
67131;HTU21D;54051;53.464;49.532;2023-06-24T07:05:05;27.40;25.07
67131;HTU21D;54051;53.464;49.532;2023-06-24T07:07:31;27.01;25.25
67131;HTU21D;54051;53.464;49.532;2023-06-24T07:09:58;27.08;25.27
67131;HTU21D;54051;53.464;49.532;2023-06-24T07:12:24;27.55;25.68
67131;HTU21D;54051;53.464;49.532;2023-06-24T07:14:51;27.21;24.74
67131;HTU21D;54051;53.464;49.532;2023-06-24T07:17:17;26.80;25.48
67131;HTU21D;54051;53.464;49.532;2023-06-24T07:19:43;26.67;24.99
67131;HTU21D;54051;53.464;49.532;2023-06-24T07:22:09;26.48;25.66
67131;HTU21D;54051;53.464;49.532;2023-06-24T07:24:35;26.49;26.35
67131;HTU21D;54051;53.464;49.532;2023-06-24T07:27:02;26.30;28.19
67131;HTU21D;54051;53.464;49.532;2023-06-24T07:29:28;26.34;26.81
67131;HTU21D;54051;53.464;49.532;2023-06-24T07:31:54;26.41;27.80
67131;HTU21D;54051;53.464;49.532;2023-06-24T07:34:20;26.37;26.37
67131;HTU21D;54051;53.464;49.532;2023-06-24T07:36:46;26.43;26.28
67131;HTU21D;54051;53.464;49.532;2023-06-24T07:39:13;26.27;26.51
67131;HTU21D;54051;53.464;49.532;2023-06-24T07:41:39;25.68;26.43
67131;HTU21D;54051;53.464;49.532;2023-06-24T07:44:06;25.79;27.13
67131;HTU21D;54051;53.464;49.532;2023-06-24T07:46:32;26.42;26.52
67131;HTU21D;54051;53.464;49.532;2023-06-24T07:48:58;27.14;24.01
67131;HTU21D;54051;53.464;49.532;2023-06-24T07:51:24;27.38;24.08
67131;HTU21D;54051;53.464;49.532;2023-06-24T07:53:50;27.45;24.04
67131;HTU21D;54051;53.464;49.532;2023-06-24T07:56:17;27.40;25.37
67131;HTU21D;54051;53.464;49.532;2023-06-24T07:58:43;27.16;24.82
67131;HTU21D;54051;53.464;49.532;2023-06-24T08:01:09;26.66;26.17
67131;HTU21D;54051;53.464;49.532;2023-06-24T08:03:35;26.33;28.40
67131;HTU21D;54051;53.464;49.532;2023-06-24T08:06:04;26.06;28.07
67131;HTU21D;54051;53.464;49.532;2023-06-24T08:08:31;25.57;28.96
67131;HTU21D;54051;53.464;49.532;2023-06-24T08:10:57;25.90;28.53
67131;HTU21D;54051;53.464;49.532;2023-06-24T08:13:23;25.99;27.66
67131;HTU21D;54051;53.464;49.532;2023-06-24T08:15:49;25.86;28.03
67131;HTU21D;54051;53.464;49.532;2023-06-24T08:18:15;25.34;29.60
67131;HTU21D;54051;53.464;49.532;2023-06-24T08:20:41;25.76;28.55
67131;HTU21D;54051;53.464;49.532;2023-06-24T08:23:07;26.03;27.91
67131;HTU21D;54051;53.464;49.532;2023-06-24T08:25:35;26.16;26.79
67131;HTU21D;54051;53.464;49.532;2023-06-24T08:28:01;26.50;25.05
67131;HTU21D;54051;53.464;49.532;2023-06-24T08:30:27;26.92;25.60
67131;HTU21D;54051;53.464;49.532;2023-06-24T08:32:53;26.97;24.56
67131;HTU21D;54051;53.464;49.532;2023-06-24T08:35:19;27.06;25.48
67131;HTU21D;54051;53.464;49.532;2023-06-24T08:37:45;26.87;25.97
67131;HTU21D;54051;53.464;49.532;2023-06-24T08:40:11;26.24;27.42
67131;HTU21D;54051;53.464;49.532;2023-06-24T08:42:37;25.83;27.18
67131;HTU21D;54051;53.464;49.532;2023-06-24T08:45:03;25.88;26.12
67131;HTU21D;54051;53.464;49.532;2023-06-24T08:47:30;25.87;25.28
67131;HTU21D;54051;53.464;49.532;2023-06-24T08:50:11;25.69;26.57
67131;HTU21D;54051;53.464;49.532;2023-06-24T08:52:51;25.82;27.20
67131;HTU21D;54051;53.464;49.532;2023-06-24T08:55:19;25.92;27.62
67131;HTU21D;54051;53.464;49.532;2023-06-24T08:57:46;26.21;27.86
67131;HTU21D;54051;53.464;49.532;2023-06-24T09:00:13;26.32;25.30
67131;HTU21D;54051;53.464;49.532;2023-06-24T09:02:40;25.65;27.55
67131;HTU21D;54051;53.464;49.532;2023-06-24T09:05:07;25.58;27.28
67131;HTU21D;54051;53.464;49.532;2023-06-24T09:07:33;25.07;26.97
67131;HTU21D;54051;53.464;49.532;2023-06-24T09:10:00;24.33;28.58
67131;HTU21D;54051;53.464;49.532;2023-06-24T09:12:26;23.98;30.86
67131;HTU21D;54051;53.464;49.532;2023-06-24T09:14:52;24.04;31.50
67131;HTU21D;54051;53.464;49.532;2023-06-24T09:17:19;23.91;30.13
67131;HTU21D;54051;53.464;49.532;2023-06-24T09:19:51;23.81;30.64
67131;HTU21D;54051;53.464;49.532;2023-06-24T09:22:17;23.97;30.64
67131;HTU21D;54051;53.464;49.532;2023-06-24T09:24:46;23.85;29.64
67131;HTU21D;54051;53.464;49.532;2023-06-24T09:27:15;23.87;30.93
67131;HTU21D;54051;53.464;49.532;2023-06-24T09:29:42;23.94;29.68
67131;HTU21D;54051;53.464;49.532;2023-06-24T09:32:09;24.11;30.15
67131;HTU21D;54051;53.464;49.532;2023-06-24T09:34:35;24.47;31.45
67131;HTU21D;54051;53.464;49.532;2023-06-24T09:37:02;24.34;30.70
67131;HTU21D;54051;53.464;49.532;2023-06-24T09:39:35;24.06;31.35
67131;HTU21D;54051;53.464;49.532;2023-06-24T09:42:04;24.15;31.25
67131;HTU21D;54051;53.464;49.532;2023-06-24T09:44:30;23.92;31.84
67131;HTU21D;54051;53.464;49.532;2023-06-24T09:46:57;23.90;30.18
67131;HTU21D;54051;53.464;49.532;2023-06-24T09:49:23;24.02;30.03
67131;HTU21D;54051;53.464;49.532;2023-06-24T09:51:55;24.02;29.16
67131;HTU21D;54051;53.464;49.532;2023-06-24T09:54:25;24.02;29.68
67131;HTU21D;54051;53.464;49.532;2023-06-24T09:56:53;24.23;29.62
67131;HTU21D;54051;53.464;49.532;2023-06-24T09:59:20;24.04;30.25
67131;HTU21D;54051;53.464;49.532;2023-06-24T10:01:49;23.79;29.95
67131;HTU21D;54051;53.464;49.532;2023-06-24T10:04:17;23.72;29.96
67131;HTU21D;54051;53.464;49.532;2023-06-24T10:06:44;23.91;29.45
67131;HTU21D;54051;53.464;49.532;2023-06-24T10:09:11;24.04;30.45
67131;HTU21D;54051;53.464;49.532;2023-06-24T10:11:43;23.87;30.51
67131;HTU21D;54051;53.464;49.532;2023-06-24T10:14:10;23.52;31.49
67131;HTU21D;54051;53.464;49.532;2023-06-24T10:16:36;23.14;31.57
67131;HTU21D;54051;53.464;49.532;2023-06-24T10:19:03;23.28;32.86
67131;HTU21D;54051;53.464;49.532;2023-06-24T10:21:51;23.43;31.83
67131;HTU21D;54051;53.464;49.532;2023-06-24T10:24:34;23.72;32.22
67131;HTU21D;54051;53.464;49.532;2023-06-24T10:27:08;23.80;32.64
67131;HTU21D;54051;53.464;49.532;2023-06-24T10:29:38;23.56;33.79
67131;HTU21D;54051;53.464;49.532;2023-06-24T10:32:08;23.49;32.21
67131;HTU21D;54051;53.464;49.532;2023-06-24T10:37:04;23.50;31.80
67131;HTU21D;54051;53.464;49.532;2023-06-24T10:42:39;23.38;32.51
67131;HTU21D;54051;53.464;49.532;2023-06-24T10:47:40;23.20;32.54
67131;HTU21D;54051;53.464;49.532;2023-06-24T10:50:07;23.13;33.54
67131;HTU21D;54051;53.464;49.532;2023-06-24T10:52:39;23.12;31.90
67131;HTU21D;54051;53.464;49.532;2023-06-24T10:55:09;23.10;31.15
67131;HTU21D;54051;53.464;49.532;2023-06-24T10:57:37;23.23;32.10
67131;HTU21D;54051;53.464;49.532;2023-06-24T11:00:04;23.06;31.25
67131;HTU21D;54051;53.464;49.532;2023-06-24T11:02:32;22.98;34.73
67131;HTU21D;54051;53.464;49.532;2023-06-24T11:05:00;22.99;33.11
67131;HTU21D;54051;53.464;49.532;2023-06-24T11:07:29;22.77;32.96
67131;HTU21D;54051;53.464;49.532;2023-06-24T11:10:06;22.72;33.17
67131;HTU21D;54051;53.464;49.532;2023-06-24T11:12:38;22.73;34.86
67131;HTU21D;54051;53.464;49.532;2023-06-24T11:15:13;22.64;33.18
67131;HTU21D;54051;53.464;49.532;2023-06-24T11:17:40;22.39;33.92
67131;HTU21D;54051;53.464;49.532;2023-06-24T11:20:08;22.26;35.31
67131;HTU21D;54051;53.464;49.532;2023-06-24T11:22:34;22.02;32.79
67131;HTU21D;54051;53.464;49.532;2023-06-24T11:25:00;22.05;34.61
67131;HTU21D;54051;53.464;49.532;2023-06-24T11:27:29;22.06;35.82
67131;HTU21D;54051;53.464;49.532;2023-06-24T11:29:57;22.02;34.22
67131;HTU21D;54051;53.464;49.532;2023-06-24T11:32:38;21.91;33.96
67131;HTU21D;54051;53.464;49.532;2023-06-24T11:35:09;21.95;33.03
67131;HTU21D;54051;53.464;49.532;2023-06-24T11:37:36;21.98;33.62
67131;HTU21D;54051;53.464;49.532;2023-06-24T11:40:10;21.89;33.94
67131;HTU21D;54051;53.464;49.532;2023-06-24T11:42:40;21.87;32.01
67131;HTU21D;54051;53.464;49.532;2023-06-24T11:45:21;21.96;34.24
67131;HTU21D;54051;53.464;49.532;2023-06-24T11:47:48;22.06;34.25
67131;HTU21D;54051;53.464;49.532;2023-06-24T11:50:25;22.02;35.21
67131;HTU21D;54051;53.464;49.532;2023-06-24T11:52:51;22.06;35.84
67131;HTU21D;54051;53.464;49.532;2023-06-24T11:55:31;21.96;35.65
67131;HTU21D;54051;53.464;49.532;2023-06-24T11:58:04;21.94;36.35
67131;HTU21D;54051;53.464;49.532;2023-06-24T12:00:39;21.82;35.70
67131;HTU21D;54051;53.464;49.532;2023-06-24T12:03:08;21.72;37.70
67131;HTU21D;54051;53.464;49.532;2023-06-24T12:05:38;21.77;37.19
67131;HTU21D;54051;53.464;49.532;2023-06-24T12:08:10;21.75;36.40
67131;HTU21D;54051;53.464;49.532;2023-06-24T12:10:44;21.88;36.98
67131;HTU21D;54051;53.464;49.532;2023-06-24T12:13:10;21.82;38.33
67131;HTU21D;54051;53.464;49.532;2023-06-24T12:15:36;21.89;42.07
67131;HTU21D;54051;53.464;49.532;2023-06-24T12:18:03;21.72;42.16
67131;HTU21D;54051;53.464;49.532;2023-06-24T12:20:33;21.62;42.68
67131;HTU21D;54051;53.464;49.532;2023-06-24T12:23:00;21.62;41.13
67131;HTU21D;54051;53.464;49.532;2023-06-24T12:25:27;21.79;41.10
67131;HTU21D;54051;53.464;49.532;2023-06-24T12:27:53;21.94;42.47
67131;HTU21D;54051;53.464;49.532;2023-06-24T12:30:19;22.11;41.00
67131;HTU21D;54051;53.464;49.532;2023-06-24T12:32:47;22.11;40.55
67131;HTU21D;54051;53.464;49.532;2023-06-24T12:35:13;22.10;40.45
67131;HTU21D;54051;53.464;49.532;2023-06-24T12:37:39;21.93;40.37
67131;HTU21D;54051;53.464;49.532;2023-06-24T12:40:08;21.78;40.88
67131;HTU21D;54051;53.464;49.532;2023-06-24T12:42:34;21.48;41.11
67131;HTU21D;54051;53.464;49.532;2023-06-24T12:45:00;21.31;41.43
67131;HTU21D;54051;53.464;49.532;2023-06-24T12:47:27;21.09;41.02
67131;HTU21D;54051;53.464;49.532;2023-06-24T12:49:53;21.11;41.90
67131;HTU21D;54051;53.464;49.532;2023-06-24T12:52:19;21.27;42.71
67131;HTU21D;54051;53.464;49.532;2023-06-24T12:54:46;21.46;42.84
67131;HTU21D;54051;53.464;49.532;2023-06-24T12:57:19;21.63;40.92
67131;HTU21D;54051;53.464;49.532;2023-06-24T13:00:37;21.46;40.78
67131;HTU21D;54051;53.464;49.532;2023-06-24T13:03:03;21.27;41.30
67131;HTU21D;54051;53.464;49.532;2023-06-24T13:05:30;21.30;41.68
67131;HTU21D;54051;53.464;49.532;2023-06-24T13:07:56;21.07;41.75
67131;HTU21D;54051;53.464;49.532;2023-06-24T13:10:23;20.86;42.05
67131;HTU21D;54051;53.464;49.532;2023-06-24T13:12:51;20.86;42.33
67131;HTU21D;54051;53.464;49.532;2023-06-24T13:15:24;20.99;42.04
67131;HTU21D;54051;53.464;49.532;2023-06-24T13:17:50;21.01;42.48
67131;HTU21D;54051;53.464;49.532;2023-06-24T13:20:20;20.89;42.84
67131;HTU21D;54051;53.464;49.532;2023-06-24T13:23:04;20.78;43.17
67131;HTU21D;54051;53.464;49.532;2023-06-24T13:25:33;20.72;42.97
67131;HTU21D;54051;53.464;49.532;2023-06-24T13:28:01;20.62;43.82
67131;HTU21D;54051;53.464;49.532;2023-06-24T13:30:27;20.71;43.43
67131;HTU21D;54051;53.464;49.532;2023-06-24T13:32:53;20.68;43.93
67131;HTU21D;54051;53.464;49.532;2023-06-24T13:35:21;20.71;44.46
67131;HTU21D;54051;53.464;49.532;2023-06-24T13:37:48;20.70;44.10
67131;HTU21D;54051;53.464;49.532;2023-06-24T13:40:14;20.68;44.07
67131;HTU21D;54051;53.464;49.532;2023-06-24T13:42:43;20.69;44.70
67131;HTU21D;54051;53.464;49.532;2023-06-24T13:45:12;20.65;43.51
67131;HTU21D;54051;53.464;49.532;2023-06-24T13:47:38;20.57;43.57
67131;HTU21D;54051;53.464;49.532;2023-06-24T13:50:07;20.59;45.08
67131;HTU21D;54051;53.464;49.532;2023-06-24T13:52:37;20.58;44.70
67131;HTU21D;54051;53.464;49.532;2023-06-24T13:55:04;20.55;44.24
67131;HTU21D;54051;53.464;49.532;2023-06-24T13:57:30;20.57;45.62
67131;HTU21D;54051;53.464;49.532;2023-06-24T13:59:58;20.56;46.19
67131;HTU21D;54051;53.464;49.532;2023-06-24T14:02:34;20.42;47.54
67131;HTU21D;54051;53.464;49.532;2023-06-24T14:05:00;20.25;50.22
67131;HTU21D;54051;53.464;49.532;2023-06-24T14:07:26;20.10;51.17
67131;HTU21D;54051;53.464;49.532;2023-06-24T14:09:52;19.99;51.22
67131;HTU21D;54051;53.464;49.532;2023-06-24T14:12:18;19.75;51.31
67131;HTU21D;54051;53.464;49.532;2023-06-24T14:14:45;19.58;54.62
67131;HTU21D;54051;53.464;49.532;2023-06-24T14:17:11;19.42;54.54
67131;HTU21D;54051;53.464;49.532;2023-06-24T14:19:39;19.15;58.36
67131;HTU21D;54051;53.464;49.532;2023-06-24T14:22:06;18.92;55.87
67131;HTU21D;54051;53.464;49.532;2023-06-24T14:24:32;18.68;57.22
67131;HTU21D;54051;53.464;49.532;2023-06-24T14:26:58;18.56;61.34
67131;HTU21D;54051;53.464;49.532;2023-06-24T14:29:25;18.46;61.05
67131;HTU21D;54051;53.464;49.532;2023-06-24T14:31:52;18.35;60.66
67131;HTU21D;54051;53.464;49.532;2023-06-24T14:34:18;18.13;60.05
67131;HTU21D;54051;53.464;49.532;2023-06-24T14:36:44;18.18;62.68
67131;HTU21D;54051;53.464;49.532;2023-06-24T14:39:14;18.20;59.21
67131;HTU21D;54051;53.464;49.532;2023-06-24T14:41:43;18.23;65.92
67131;HTU21D;54051;53.464;49.532;2023-06-24T14:44:10;18.24;66.47
67131;HTU21D;54051;53.464;49.532;2023-06-24T14:46:36;18.37;65.17
67131;HTU21D;54051;53.464;49.532;2023-06-24T14:49:02;18.43;70.63
67131;HTU21D;54051;53.464;49.532;2023-06-24T14:51:28;18.54;67.07
67131;HTU21D;54051;53.464;49.532;2023-06-24T14:53:54;18.54;68.18
67131;HTU21D;54051;53.464;49.532;2023-06-24T14:56:20;18.50;69.28
67131;HTU21D;54051;53.464;49.532;2023-06-24T14:58:46;18.30;68.14
67131;HTU21D;54051;53.464;49.532;2023-06-24T15:01:12;18.17;70.77
67131;HTU21D;54051;53.464;49.532;2023-06-24T15:03:38;18.12;71.48
67131;HTU21D;54051;53.464;49.532;2023-06-24T15:06:04;18.06;70.23
67131;HTU21D;54051;53.464;49.532;2023-06-24T15:08:30;18.06;71.58
67131;HTU21D;54051;53.464;49.532;2023-06-24T15:10:57;18.00;72.73
67131;HTU21D;54051;53.464;49.532;2023-06-24T15:13:22;17.96;73.33
67131;HTU21D;54051;53.464;49.532;2023-06-24T15:15:52;17.89;72.73
67131;HTU21D;54051;53.464;49.532;2023-06-24T15:18:28;17.90;74.52
67131;HTU21D;54051;53.464;49.532;2023-06-24T15:20:58;17.92;74.36
67131;HTU21D;54051;53.464;49.532;2023-06-24T15:23:24;17.83;70.68
67131;HTU21D;54051;53.464;49.532;2023-06-24T15:25:50;17.69;71.51
67131;HTU21D;54051;53.464;49.532;2023-06-24T15:28:18;17.49;72.73
67131;HTU21D;54051;53.464;49.532;2023-06-24T15:30:44;17.39;72.14